createdAt,value
2018-01-28T00:00:21.308Z,0
2018-01-28T00:01:21.552Z,0
2018-01-28T00:02:21.542Z,0
2018-01-28T00:03:21.540Z,0
2018-01-28T00:04:21.268Z,0
2018-01-28T00:05:21.259Z,0
2018-01-28T00:06:21.250Z,0
2018-01-28T00:07:21.239Z,0
2018-01-28T00:08:21.480Z,0
2018-01-28T00:09:21.476Z,0
2018-01-28T00:10:21.458Z,0
2018-01-28T00:11:21.436Z,0
2018-01-28T00:12:21.426Z,0
2018-01-28T00:13:21.418Z,0
2018-01-28T00:14:21.158Z,0
2018-01-28T00:15:21.401Z,0
2018-01-28T00:16:21.381Z,0
2018-01-28T00:17:21.115Z,0
2018-01-28T00:18:21.350Z,0
2018-01-28T00:19:21.338Z,0
2018-01-28T00:20:21.329Z,0
2018-01-28T00:21:21.069Z,0
2018-01-28T00:22:21.052Z,0
2018-01-28T00:23:20.785Z,0
2018-01-28T00:24:21.277Z,0
2018-01-28T00:25:21.263Z,0
2018-01-28T00:26:21.253Z,0
2018-01-28T00:27:21.256Z,0
2018-01-28T00:28:20.979Z,0
2018-01-28T00:29:21.214Z,0
2018-01-28T00:30:21.222Z,0
2018-01-28T00:31:20.948Z,0
2018-01-28T00:32:20.684Z,0
2018-01-28T00:33:21.170Z,0
2018-01-28T00:34:20.647Z,0
2018-01-28T00:35:20.896Z,0
2018-01-28T00:36:20.627Z,0
2018-01-28T00:37:21.129Z,0
2018-01-28T00:38:21.104Z,0
2018-01-28T00:39:20.604Z,0
2018-01-28T00:40:20.837Z,0
2018-01-28T00:41:21.105Z,0
2018-01-28T00:42:21.064Z,0
2018-01-28T00:43:21.053Z,0
2018-01-28T00:44:21.047Z,0
2018-01-28T00:45:20.777Z,0
2018-01-28T00:46:20.762Z,0
2018-01-28T00:47:21.004Z,0
2018-01-28T00:48:20.744Z,0
2018-01-28T00:49:20.994Z,0
2018-01-28T00:50:20.973Z,0
2018-01-28T00:51:20.703Z,0
2018-01-28T00:52:20.699Z,0
2018-01-28T00:53:20.950Z,0
2018-01-28T00:54:20.423Z,0
2018-01-28T00:55:20.656Z,0
2018-01-28T00:56:20.911Z,0
2018-01-28T00:57:20.884Z,0
2018-01-28T00:58:20.877Z,0
2018-01-28T00:59:20.612Z,0
2018-01-28T01:00:20.605Z,0
2018-01-28T01:01:20.339Z,0
2018-01-28T01:02:20.573Z,0
2018-01-28T01:03:20.568Z,0
2018-01-28T01:04:20.826Z,0
2018-01-28T01:05:20.543Z,0
2018-01-28T01:06:20.520Z,0
2018-01-28T01:07:20.518Z,0
2018-01-28T01:08:20.770Z,0
2018-01-28T01:09:20.760Z,0
2018-01-28T01:10:20.740Z,0
2018-01-28T01:11:20.717Z,0
2018-01-28T01:12:20.713Z,0
2018-01-28T01:13:20.696Z,0
2018-01-28T01:14:20.690Z,0
2018-01-28T01:15:20.170Z,0
2018-01-28T01:16:19.925Z,0
2018-01-28T01:17:20.660Z,0
2018-01-28T01:18:20.393Z,0
2018-01-28T01:19:20.382Z,0
2018-01-28T01:20:20.368Z,0
2018-01-28T01:21:20.602Z,0
2018-01-28T01:22:20.351Z,0
2018-01-28T01:23:19.824Z,0
2018-01-28T01:24:20.322Z,0
2018-01-28T01:25:20.307Z,0
2018-01-28T01:26:20.550Z,0
2018-01-28T01:27:20.535Z,0
2018-01-28T01:28:20.524Z,0
2018-01-28T01:29:20.264Z,0
2018-01-28T01:30:20.248Z,0
2018-01-28T01:31:20.289Z,0
2018-01-28T01:32:19.971Z,0
2018-01-28T01:33:20.467Z,0
2018-01-28T01:34:19.948Z,0
2018-01-28T01:35:20.192Z,0
2018-01-28T01:36:20.430Z,0
2018-01-28T01:37:20.171Z,0
2018-01-28T01:38:20.155Z,0
2018-01-28T01:39:19.890Z,0
2018-01-28T01:40:20.138Z,0
2018-01-28T01:41:19.873Z,0
2018-01-28T01:42:20.373Z,0
2018-01-28T01:43:20.146Z,0
2018-01-28T01:44:20.334Z,0
2018-01-28T01:45:20.336Z,0
2018-01-28T01:46:20.315Z,0
2018-01-28T01:47:19.916Z,0
2018-01-28T01:48:20.299Z,0
2018-01-28T01:49:20.280Z,0
2018-01-28T01:50:20.015Z,0
2018-01-28T01:51:20.022Z,0
2018-01-28T01:52:20.248Z,0
2018-01-28T01:53:19.984Z,0
2018-01-28T01:54:19.974Z,0
2018-01-28T01:55:19.956Z,0
2018-01-28T01:56:20.198Z,0
2018-01-28T01:57:19.934Z,0
2018-01-28T01:58:20.181Z,0
2018-01-28T01:59:19.919Z,0
2018-01-28T02:00:20.156Z,0
2018-01-28T02:01:20.135Z,0
2018-01-28T02:02:20.131Z,0
2018-01-28T02:03:19.863Z,0
2018-01-28T02:04:20.108Z,0
2018-01-28T02:05:19.851Z,0
2018-01-28T02:06:19.827Z,0
2018-01-28T02:07:20.077Z,0
2018-01-28T02:08:20.064Z,0
2018-01-28T02:09:20.049Z,0
2018-01-28T02:10:20.038Z,0
2018-01-28T02:11:19.789Z,0
2018-01-28T02:12:19.511Z,0
2018-01-28T02:13:20.002Z,0
2018-01-28T02:14:19.733Z,0
2018-01-28T02:15:19.976Z,0
2018-01-28T02:16:19.974Z,0
2018-01-28T02:17:19.196Z,0
2018-01-28T02:18:19.788Z,0
2018-01-28T02:19:19.685Z,0
2018-01-28T02:20:19.665Z,0
2018-01-28T02:21:19.657Z,0
2018-01-28T02:22:19.897Z,0
2018-01-28T02:23:19.641Z,0
2018-01-28T02:24:19.623Z,0
2018-01-28T02:25:19.870Z,0
2018-01-28T02:26:19.603Z,0
2018-01-28T02:27:19.593Z,0
2018-01-28T02:28:19.835Z,0
2018-01-28T02:29:19.569Z,0
2018-01-28T02:30:19.821Z,0
2018-01-28T02:31:19.558Z,0
2018-01-28T02:32:19.810Z,0
2018-01-28T02:33:19.783Z,0
2018-01-28T02:34:19.826Z,0
2018-01-28T02:35:19.760Z,0
2018-01-28T02:36:19.758Z,0
2018-01-28T02:37:19.727Z,0
2018-01-28T02:38:19.478Z,0
2018-01-28T02:39:19.712Z,0
2018-01-28T02:40:19.193Z,0
2018-01-28T02:41:19.429Z,0
2018-01-28T02:42:18.916Z,0
2018-01-28T02:43:19.156Z,0
2018-01-28T02:44:19.412Z,0
2018-01-28T02:45:19.642Z,0
2018-01-28T02:46:19.623Z,0
2018-01-28T02:47:19.363Z,0
2018-01-28T02:48:19.614Z,0
2018-01-28T02:49:19.596Z,0
2018-01-28T02:50:19.591Z,0
2018-01-28T02:51:19.318Z,0
2018-01-28T02:52:19.556Z,0
2018-01-28T02:53:19.549Z,0
2018-01-28T02:54:19.544Z,0
2018-01-28T02:55:19.528Z,0
2018-01-28T02:56:19.523Z,0
2018-01-28T02:57:19.246Z,0
2018-01-28T02:58:19.235Z,0
2018-01-28T02:59:19.490Z,0
2018-01-28T03:00:19.517Z,0
2018-01-28T03:01:18.945Z,0
2018-01-28T03:02:18.939Z,0
2018-01-28T03:03:19.434Z,0
2018-01-28T03:04:19.433Z,0
2018-01-28T03:05:18.904Z,0
2018-01-28T03:06:19.141Z,0
2018-01-28T03:07:19.404Z,0
2018-01-28T03:08:18.866Z,0
2018-01-28T03:09:19.111Z,0
2018-01-28T03:10:19.099Z,0
2018-01-28T03:11:19.356Z,0
2018-01-28T03:12:18.825Z,0
2018-01-28T03:13:18.811Z,0
2018-01-28T03:14:19.056Z,0
2018-01-28T03:15:19.298Z,0
2018-01-28T03:16:19.033Z,0
2018-01-28T03:17:19.284Z,0
2018-01-28T03:18:19.058Z,0
2018-01-28T03:19:18.747Z,0
2018-01-28T03:20:19.242Z,0
2018-01-28T03:21:18.976Z,0
2018-01-28T03:22:18.966Z,0
2018-01-28T03:23:18.961Z,0
2018-01-28T03:24:19.197Z,0
2018-01-28T03:25:19.203Z,0
2018-01-28T03:26:18.928Z,0
2018-01-28T03:27:19.163Z,0
2018-01-28T03:28:19.153Z,0
2018-01-28T03:29:19.153Z,0
2018-01-28T03:30:19.146Z,0
2018-01-28T03:31:19.132Z,0
2018-01-28T03:32:18.849Z,0
2018-01-28T03:33:19.102Z,0
2018-01-28T03:34:18.841Z,0
2018-01-28T03:35:18.815Z,0
2018-01-28T03:36:18.807Z,0
2018-01-28T03:37:18.558Z,0
2018-01-28T03:38:19.042Z,0
2018-01-28T03:39:18.822Z,0
2018-01-28T03:40:18.505Z,0
2018-01-28T03:41:19.002Z,0
2018-01-28T03:42:18.738Z,0
2018-01-28T03:43:18.472Z,0
2018-01-28T03:44:18.768Z,0
2018-01-28T03:45:18.963Z,0
2018-01-28T03:46:18.943Z,0
2018-01-28T03:47:18.936Z,0
2018-01-28T03:48:18.993Z,0
2018-01-28T03:49:18.665Z,0
2018-01-28T03:50:18.903Z,0
2018-01-28T03:51:18.885Z,0
2018-01-28T03:52:18.881Z,0
2018-01-28T03:53:18.869Z,0
2018-01-28T03:54:18.852Z,0
2018-01-28T03:55:18.850Z,0
2018-01-28T03:56:18.590Z,0
2018-01-28T03:57:18.824Z,0
2018-01-28T03:58:18.840Z,0
2018-01-28T03:59:18.551Z,0
2018-01-28T04:00:18.281Z,0
2018-01-28T04:01:18.524Z,0
2018-01-28T04:02:18.771Z,0
2018-01-28T04:03:18.755Z,0
2018-01-28T04:04:18.742Z,0
2018-01-28T04:05:17.971Z,0
2018-01-28T04:06:18.467Z,0
2018-01-28T04:07:18.705Z,0
2018-01-28T04:08:18.443Z,0
2018-01-28T04:09:18.692Z,0
2018-01-28T04:10:18.427Z,0
2018-01-28T04:11:18.408Z,0
2018-01-28T04:12:18.653Z,0
2018-01-28T04:13:18.386Z,0
2018-01-28T04:14:18.377Z,0
2018-01-28T04:15:18.616Z,0
2018-01-28T04:16:18.349Z,0
2018-01-28T04:17:18.341Z,0
2018-01-28T04:18:18.327Z,0
2018-01-28T04:19:18.567Z,0
2018-01-28T04:20:18.564Z,0
2018-01-28T04:21:18.555Z,0
2018-01-28T04:22:18.296Z,0
2018-01-28T04:23:18.528Z,0
2018-01-28T04:24:18.262Z,0
2018-01-28T04:25:18.251Z,0
2018-01-28T04:26:18.234Z,0
2018-01-28T04:27:18.486Z,0
2018-01-28T04:28:17.963Z,0
2018-01-28T04:29:18.465Z,0
2018-01-28T04:30:18.449Z,0
2018-01-28T04:31:18.441Z,0
2018-01-28T04:32:18.427Z,0
2018-01-28T04:33:18.160Z,0
2018-01-28T04:34:18.403Z,0
2018-01-28T04:35:18.390Z,0
2018-01-28T04:36:18.124Z,0
2018-01-28T04:37:18.370Z,0
2018-01-28T04:38:18.103Z,0
2018-01-28T04:39:18.346Z,0
2018-01-28T04:40:18.334Z,0
2018-01-28T04:41:18.325Z,0
2018-01-28T04:42:18.307Z,0
2018-01-28T04:43:18.055Z,0
2018-01-28T04:44:18.291Z,0
2018-01-28T04:45:18.024Z,0
2018-01-28T04:46:18.012Z,0
2018-01-28T04:47:18.259Z,0
2018-01-28T04:48:18.248Z,0
2018-01-28T04:49:18.248Z,0
2018-01-28T04:50:17.717Z,0
2018-01-28T04:51:17.714Z,0
2018-01-28T04:52:18.196Z,0
2018-01-28T04:53:17.937Z,0
2018-01-28T04:54:17.931Z,0
2018-01-28T04:55:17.910Z,0
2018-01-28T04:56:18.157Z,0
2018-01-28T04:57:18.148Z,0
2018-01-28T04:58:18.132Z,0
2018-01-28T04:59:18.134Z,0
2018-01-28T05:00:18.120Z,0
2018-01-28T05:01:18.100Z,0
2018-01-28T05:02:17.831Z,0
2018-01-28T05:03:18.135Z,0
2018-01-28T05:04:18.065Z,0
2018-01-28T05:05:17.798Z,0
2018-01-28T05:06:17.812Z,0
2018-01-28T05:07:18.035Z,0
2018-01-28T05:08:17.511Z,0
2018-01-28T05:09:18.017Z,0
2018-01-28T05:10:17.784Z,0
2018-01-28T05:11:17.994Z,0
2018-01-28T05:12:17.974Z,0
2018-01-28T05:13:17.706Z,0
2018-01-28T05:14:17.715Z,0
2018-01-28T05:15:17.702Z,0
2018-01-28T05:16:17.679Z,0
2018-01-28T05:17:17.920Z,0
2018-01-28T05:18:17.669Z,0
2018-01-28T05:19:17.657Z,0
2018-01-28T05:20:17.632Z,0
2018-01-28T05:21:17.379Z,0
2018-01-28T05:22:17.357Z,0
2018-01-28T05:23:17.356Z,0
2018-01-28T05:24:17.841Z,0
2018-01-28T05:25:17.828Z,0
2018-01-28T05:26:17.815Z,0
2018-01-28T05:27:17.804Z,0
2018-01-28T05:28:17.283Z,0
2018-01-28T05:29:17.786Z,0
2018-01-28T05:30:17.772Z,0
2018-01-28T05:31:17.761Z,0
2018-01-28T05:32:17.758Z,0
2018-01-28T05:33:17.488Z,0
2018-01-28T05:34:17.471Z,0
2018-01-28T05:35:17.462Z,0
2018-01-28T05:36:17.707Z,0
2018-01-28T05:37:17.198Z,0
2018-01-28T05:38:17.683Z,0
2018-01-28T05:39:17.667Z,0
2018-01-28T05:40:17.650Z,0
2018-01-28T05:41:17.392Z,0
2018-01-28T05:42:17.127Z,0
2018-01-28T05:43:17.627Z,0
2018-01-28T05:44:17.362Z,0
2018-01-28T05:45:17.598Z,0
2018-01-28T05:46:17.586Z,0
2018-01-28T05:47:17.321Z,0
2018-01-28T05:48:17.572Z,0
2018-01-28T05:49:17.551Z,0
2018-01-28T05:50:17.541Z,0
2018-01-28T05:51:17.547Z,0
2018-01-28T05:52:17.522Z,0
2018-01-28T05:53:17.509Z,0
2018-01-28T05:54:17.509Z,0
2018-01-28T05:55:16.991Z,0
2018-01-28T05:56:17.219Z,0
2018-01-28T05:57:17.458Z,0
2018-01-28T05:58:17.204Z,0
2018-01-28T05:59:17.445Z,0
2018-01-28T06:00:17.430Z,0
2018-01-28T06:01:17.417Z,0
2018-01-28T06:02:17.156Z,0
2018-01-28T06:03:17.142Z,0
2018-01-28T06:04:17.384Z,0
2018-01-28T06:05:17.120Z,0
2018-01-28T06:06:17.115Z,0
2018-01-28T06:07:17.098Z,0
2018-01-28T06:08:17.335Z,0
2018-01-28T06:09:17.329Z,0
2018-01-28T06:10:17.065Z,0
2018-01-28T06:11:17.303Z,0
2018-01-28T06:12:17.046Z,0
2018-01-28T06:13:17.365Z,0
2018-01-28T06:14:17.023Z,0
2018-01-28T06:15:17.265Z,0
2018-01-28T06:16:17.036Z,0
2018-01-28T06:17:16.987Z,0
2018-01-28T06:18:17.225Z,0
2018-01-28T06:19:17.220Z,0
2018-01-28T06:20:17.206Z,0
2018-01-28T06:21:16.941Z,0
2018-01-28T06:22:16.924Z,0
2018-01-28T06:23:17.197Z,0
2018-01-28T06:24:17.021Z,0
2018-01-28T06:25:16.902Z,0
2018-01-28T06:26:17.193Z,0
2018-01-28T06:27:17.122Z,0
2018-01-28T06:28:16.603Z,0
2018-01-28T06:29:17.107Z,0
2018-01-28T06:30:17.099Z,0
2018-01-28T06:31:17.087Z,0
2018-01-28T06:32:17.072Z,0
2018-01-28T06:33:17.062Z,0
2018-01-28T06:34:17.050Z,0
2018-01-28T06:35:16.786Z,0
2018-01-28T06:36:16.771Z,0
2018-01-28T06:37:17.020Z,0
2018-01-28T06:38:16.513Z,0
2018-01-28T06:39:16.998Z,0
2018-01-28T06:40:16.981Z,0
2018-01-28T06:41:16.716Z,0
2018-01-28T06:42:16.709Z,0
2018-01-28T06:43:16.949Z,0
2018-01-28T06:44:16.935Z,0
2018-01-28T06:45:16.675Z,0
2018-01-28T06:46:16.921Z,0
2018-01-28T06:47:16.897Z,0
2018-01-28T06:48:16.383Z,0
2018-01-28T06:49:16.876Z,0
2018-01-28T06:50:16.880Z,0
2018-01-28T06:51:16.856Z,0
2018-01-28T06:52:16.590Z,0
2018-01-28T06:53:16.831Z,0
2018-01-28T06:54:16.829Z,0
2018-01-28T06:55:16.817Z,0
2018-01-28T06:56:16.289Z,0
2018-01-28T06:57:16.795Z,0
2018-01-28T06:58:16.770Z,0
2018-01-28T06:59:16.765Z,0
2018-01-28T07:00:16.501Z,0
2018-01-28T07:01:16.739Z,0
2018-01-28T07:02:16.729Z,0
2018-01-28T07:03:16.726Z,0
2018-01-28T07:04:16.453Z,0
2018-01-28T07:05:16.457Z,0
2018-01-28T07:06:16.691Z,0
2018-01-28T07:07:16.670Z,0
2018-01-28T07:08:16.418Z,0
2018-01-28T07:09:16.150Z,0
2018-01-28T07:10:16.684Z,5
2018-01-28T07:11:16.374Z,5
2018-01-28T07:12:16.630Z,5
2018-01-28T07:13:16.605Z,5
2018-01-28T07:14:16.591Z,5
2018-01-28T07:15:16.579Z,5
2018-01-28T07:16:16.315Z,5
2018-01-28T07:17:16.603Z,5
2018-01-28T07:18:16.038Z,5
2018-01-28T07:19:16.533Z,5
2018-01-28T07:20:16.277Z,5
2018-01-28T07:21:16.006Z,5
2018-01-28T07:22:16.254Z,5
2018-01-28T07:23:16.233Z,5
2018-01-28T07:24:16.480Z,5
2018-01-28T07:25:16.462Z,10
2018-01-28T07:26:16.457Z,10
2018-01-28T07:27:16.445Z,15
2018-01-28T07:28:16.180Z,15
2018-01-28T07:29:16.431Z,15
2018-01-28T07:30:16.409Z,15
2018-01-28T07:31:16.398Z,15
2018-01-28T07:32:16.387Z,15
2018-01-28T07:33:16.376Z,20
2018-01-28T07:34:16.363Z,15
2018-01-28T07:35:16.372Z,15
2018-01-28T07:36:16.340Z,15
2018-01-28T07:37:16.323Z,15
2018-01-28T07:38:16.312Z,20
2018-01-28T07:39:15.799Z,20
2018-01-28T07:40:16.036Z,20
2018-01-28T07:41:16.280Z,20
2018-01-28T07:42:16.013Z,15
2018-01-28T07:43:16.055Z,15
2018-01-28T07:44:16.248Z,15
2018-01-28T07:45:15.975Z,15
2018-01-28T07:46:15.974Z,15
2018-01-28T07:47:15.964Z,25
2018-01-28T07:48:16.198Z,15
2018-01-28T07:49:15.937Z,20
2018-01-28T07:50:16.171Z,20
2018-01-28T07:51:15.906Z,15
2018-01-28T07:52:15.897Z,15
2018-01-28T07:53:16.142Z,20
2018-01-28T07:54:15.626Z,20
2018-01-28T07:55:16.120Z,25
2018-01-28T07:56:15.604Z,25
2018-01-28T07:57:15.843Z,25
2018-01-28T07:58:15.602Z,25
2018-01-28T07:59:15.822Z,25
2018-01-28T08:00:16.070Z,30
2018-01-28T08:01:16.051Z,30
2018-01-28T08:02:16.040Z,45
2018-01-28T08:03:16.032Z,35
2018-01-28T08:04:15.767Z,30
2018-01-28T08:05:15.503Z,35
2018-01-28T08:06:15.745Z,25
2018-01-28T08:07:15.982Z,25
2018-01-28T08:08:15.469Z,25
2018-01-28T08:09:15.705Z,20
2018-01-28T08:10:15.949Z,25
2018-01-28T08:11:15.935Z,25
2018-01-28T08:12:15.938Z,25
2018-01-28T08:13:15.662Z,35
2018-01-28T08:14:15.902Z,40
2018-01-28T08:15:15.384Z,30
2018-01-28T08:16:15.630Z,35
2018-01-28T08:17:15.871Z,35
2018-01-28T08:18:15.354Z,35
2018-01-28T08:19:15.654Z,25
2018-01-28T08:20:15.072Z,30
2018-01-28T08:21:15.319Z,30
2018-01-28T08:22:15.309Z,35
2018-01-28T08:23:15.599Z,40
2018-01-28T08:24:15.792Z,50
2018-01-28T08:25:15.792Z,55
2018-01-28T08:26:15.510Z,55
2018-01-28T08:27:15.780Z,55
2018-01-28T08:28:15.307Z,60
2018-01-28T08:29:15.474Z,45
2018-01-28T08:30:15.217Z,55
2018-01-28T08:31:15.464Z,65
2018-01-28T08:32:15.501Z,50
2018-01-28T08:33:15.448Z,50
2018-01-28T08:34:15.176Z,55
2018-01-28T08:35:15.413Z,50
2018-01-28T08:36:15.655Z,50
2018-01-28T08:37:15.391Z,40
2018-01-28T08:38:15.635Z,40
2018-01-28T08:39:15.120Z,45
2018-01-28T08:40:15.612Z,45
2018-01-28T08:41:15.677Z,45
2018-01-28T08:42:15.591Z,40
2018-01-28T08:43:15.583Z,35
2018-01-28T08:44:15.337Z,35
2018-01-28T08:45:15.563Z,35
2018-01-28T08:46:14.793Z,50
2018-01-28T08:47:15.532Z,40
2018-01-28T08:48:15.269Z,50
2018-01-28T08:49:15.511Z,65
2018-01-28T08:50:15.244Z,80
2018-01-28T08:51:15.242Z,70
2018-01-28T08:52:15.487Z,85
2018-01-28T08:53:14.716Z,60
2018-01-28T08:54:15.462Z,50
2018-01-28T08:55:15.193Z,50
2018-01-28T08:56:15.258Z,60
2018-01-28T08:57:15.173Z,55
2018-01-28T08:58:15.164Z,50
2018-01-28T08:59:14.642Z,55
2018-01-28T09:00:15.399Z,50
2018-01-28T09:01:15.380Z,45
2018-01-28T09:02:15.371Z,45
2018-01-28T09:03:14.856Z,50
2018-01-28T09:04:14.840Z,70
2018-01-28T09:05:14.833Z,80
2018-01-28T09:06:15.085Z,60
2018-01-28T09:07:14.809Z,75
2018-01-28T09:08:15.052Z,85
2018-01-28T09:09:15.289Z,60
2018-01-28T09:10:15.282Z,55
2018-01-28T09:11:15.273Z,65
2018-01-28T09:12:15.262Z,85
2018-01-28T09:13:15.258Z,105
2018-01-28T09:14:15.250Z,125
2018-01-28T09:15:15.246Z,135
2018-01-28T09:16:15.219Z,135
2018-01-28T09:17:15.207Z,135
2018-01-28T09:18:14.688Z,155
2018-01-28T09:19:14.992Z,155
2018-01-28T09:20:15.186Z,135
2018-01-28T09:21:15.164Z,170
2018-01-28T09:22:14.899Z,215
2018-01-28T09:23:14.956Z,195
2018-01-28T09:24:14.896Z,195
2018-01-28T09:25:15.163Z,170
2018-01-28T09:26:14.894Z,135
2018-01-28T09:27:15.107Z,150
2018-01-28T09:28:14.843Z,165
2018-01-28T09:29:14.835Z,140
2018-01-28T09:30:15.082Z,150
2018-01-28T09:31:14.812Z,175
2018-01-28T09:32:15.073Z,150
2018-01-28T09:33:15.054Z,180
2018-01-28T09:34:14.783Z,245
2018-01-28T09:35:15.030Z,270
2018-01-28T09:36:14.761Z,215
2018-01-28T09:37:15.005Z,185
2018-01-28T09:38:15.008Z,215
2018-01-28T09:39:14.733Z,185
2018-01-28T09:40:14.973Z,200
2018-01-28T09:41:14.716Z,185
2018-01-28T09:42:14.712Z,235
2018-01-28T09:43:14.444Z,305
2018-01-28T09:44:14.690Z,315
2018-01-28T09:45:14.924Z,310
2018-01-28T09:46:14.677Z,285
2018-01-28T09:47:14.404Z,295
2018-01-28T09:48:14.669Z,260
2018-01-28T09:49:14.653Z,265
2018-01-28T09:50:14.882Z,285
2018-01-28T09:51:14.371Z,210
2018-01-28T09:52:14.876Z,200
2018-01-28T09:53:14.673Z,230
2018-01-28T09:54:14.606Z,205
2018-01-28T09:55:14.599Z,220
2018-01-28T09:56:14.829Z,220
2018-01-28T09:57:14.830Z,255
2018-01-28T09:58:14.816Z,255
2018-01-28T09:59:14.294Z,300
2018-01-28T10:00:14.793Z,340
2018-01-28T10:01:14.787Z,365
2018-01-28T10:02:14.780Z,365
2018-01-28T10:03:14.519Z,355
2018-01-28T10:04:14.502Z,295
2018-01-28T10:05:14.558Z,230
2018-01-28T10:06:14.488Z,240
2018-01-28T10:07:14.234Z,230
2018-01-28T10:08:14.480Z,225
2018-01-28T10:09:14.465Z,230
2018-01-28T10:10:14.708Z,215
2018-01-28T10:11:14.701Z,225
2018-01-28T10:12:14.442Z,230
2018-01-28T10:13:14.177Z,230
2018-01-28T10:14:14.194Z,240
2018-01-28T10:15:14.451Z,230
2018-01-28T10:16:14.409Z,245
2018-01-28T10:17:14.397Z,250
2018-01-28T10:18:14.648Z,230
2018-01-28T10:19:14.642Z,220
2018-01-28T10:20:14.372Z,220
2018-01-28T10:21:14.163Z,210
2018-01-28T10:22:14.364Z,190
2018-01-28T10:23:14.361Z,180
2018-01-28T10:24:14.084Z,170
2018-01-28T10:25:14.077Z,170
2018-01-28T10:26:14.320Z,165
2018-01-28T10:27:14.315Z,170
2018-01-28T10:28:14.251Z,155
2018-01-28T10:29:14.318Z,160
2018-01-28T10:30:14.554Z,160
2018-01-28T10:31:14.292Z,165
2018-01-28T10:32:13.760Z,175
2018-01-28T10:33:14.257Z,195
2018-01-28T10:34:14.514Z,225
2018-01-28T10:35:14.492Z,225
2018-01-28T10:36:14.487Z,215
2018-01-28T10:37:14.489Z,230
2018-01-28T10:38:13.461Z,250
2018-01-28T10:39:14.473Z,255
2018-01-28T10:40:14.206Z,255
2018-01-28T10:41:13.958Z,225
2018-01-28T10:42:14.177Z,190
2018-01-28T10:43:14.423Z,215
2018-01-28T10:44:14.428Z,205
2018-01-28T10:45:14.161Z,220
2018-01-28T10:46:14.149Z,200
2018-01-28T10:47:14.140Z,185
2018-01-28T10:48:14.382Z,180
2018-01-28T10:49:13.890Z,150
2018-01-28T10:50:13.612Z,140
2018-01-28T10:51:14.374Z,160
2018-01-28T10:52:14.349Z,170
2018-01-28T10:53:14.351Z,155
2018-01-28T10:54:14.099Z,175
2018-01-28T10:55:14.344Z,170
2018-01-28T10:56:14.326Z,175
2018-01-28T10:57:14.310Z,195
2018-01-28T10:58:14.800Z,205
2018-01-28T10:59:14.304Z,180
2018-01-28T11:00:14.281Z,155
2018-01-28T11:01:14.030Z,150
2018-01-28T11:02:14.016Z,180
2018-01-28T11:03:14.266Z,195
2018-01-28T11:04:13.486Z,180
2018-01-28T11:05:14.255Z,185
2018-01-28T11:06:13.977Z,185
2018-01-28T11:07:14.223Z,205
2018-01-28T11:08:14.211Z,220
2018-01-28T11:09:13.947Z,210
2018-01-28T11:10:14.196Z,220
2018-01-28T11:11:13.682Z,220
2018-01-28T11:12:14.183Z,205
2018-01-28T11:13:13.926Z,200
2018-01-28T11:14:14.168Z,230
2018-01-28T11:15:14.164Z,245
2018-01-28T11:16:14.152Z,250
2018-01-28T11:17:14.154Z,245
2018-01-28T11:18:13.630Z,245
2018-01-28T11:19:13.362Z,235
2018-01-28T11:20:14.324Z,210
2018-01-28T11:21:13.864Z,180
2018-01-28T11:22:13.846Z,195
2018-01-28T11:23:14.082Z,175
2018-01-28T11:24:14.082Z,150
2018-01-28T11:25:14.076Z,155
2018-01-28T11:26:13.811Z,190
2018-01-28T11:27:13.809Z,175
2018-01-28T11:28:13.538Z,160
2018-01-28T11:29:13.542Z,125
2018-01-28T11:30:13.779Z,100
2018-01-28T11:31:14.029Z,100
2018-01-28T11:32:13.754Z,120
2018-01-28T11:33:13.742Z,125
2018-01-28T11:34:14.043Z,125
2018-01-28T11:35:14.010Z,135
2018-01-28T11:36:13.972Z,145
2018-01-28T11:37:13.968Z,155
2018-01-28T11:38:13.774Z,165
2018-01-28T11:39:13.441Z,190
2018-01-28T11:40:13.944Z,210
2018-01-28T11:41:13.695Z,230
2018-01-28T11:42:13.946Z,235
2018-01-28T11:43:14.335Z,210
2018-01-28T11:44:13.653Z,185
2018-01-28T11:45:13.894Z,170
2018-01-28T11:46:13.632Z,160
2018-01-28T11:47:13.879Z,155
2018-01-28T11:48:13.373Z,150
2018-01-28T11:49:13.612Z,140
2018-01-28T11:50:13.603Z,160
2018-01-28T11:51:13.600Z,175
2018-01-28T11:52:13.850Z,195
2018-01-28T11:53:13.850Z,195
2018-01-28T11:54:13.840Z,195
2018-01-28T11:55:13.818Z,155
2018-01-28T11:56:13.844Z,160
2018-01-28T11:57:13.575Z,155
2018-01-28T11:58:13.368Z,135
2018-01-28T11:59:13.539Z,145
2018-01-28T12:00:13.299Z,130
2018-01-28T12:01:13.771Z,110
2018-01-28T12:02:13.771Z,75
2018-01-28T12:03:13.512Z,75
2018-01-28T12:04:13.741Z,80
2018-01-28T12:05:13.771Z,65
2018-01-28T12:06:13.473Z,70
2018-01-28T12:07:13.724Z,80
2018-01-28T12:08:13.700Z,90
2018-01-28T12:09:13.191Z,80
2018-01-28T12:10:13.703Z,75
2018-01-28T12:11:13.174Z,75
2018-01-28T12:12:13.432Z,65
2018-01-28T12:13:13.417Z,85
2018-01-28T12:14:13.194Z,60
2018-01-28T12:15:13.639Z,75
2018-01-28T12:16:13.131Z,125
2018-01-28T12:17:13.120Z,170
2018-01-28T12:18:13.361Z,185
2018-01-28T12:19:13.354Z,200
2018-01-28T12:20:13.342Z,230
2018-01-28T12:21:13.077Z,200
2018-01-28T12:22:13.360Z,170
2018-01-28T12:23:13.314Z,165
2018-01-28T12:24:13.313Z,160
2018-01-28T12:25:13.302Z,170
2018-01-28T12:26:13.587Z,165
2018-01-28T12:27:13.529Z,125
2018-01-28T12:28:13.532Z,105
2018-01-28T12:29:13.524Z,130
2018-01-28T12:30:13.501Z,125
2018-01-28T12:31:13.516Z,115
2018-01-28T12:32:13.490Z,110
2018-01-28T12:33:13.265Z,70
2018-01-28T12:34:13.272Z,75
2018-01-28T12:35:13.212Z,65
2018-01-28T12:36:13.281Z,55
2018-01-28T12:37:13.198Z,25
2018-01-28T12:38:12.930Z,35
2018-01-28T12:39:13.195Z,40
2018-01-28T12:40:13.189Z,65
2018-01-28T12:41:13.172Z,105
2018-01-28T12:42:13.484Z,140
2018-01-28T12:43:13.408Z,155
2018-01-28T12:44:13.131Z,125
2018-01-28T12:45:13.117Z,155
2018-01-28T12:46:13.360Z,160
2018-01-28T12:47:13.366Z,155
2018-01-28T12:48:13.330Z,150
2018-01-28T12:49:13.078Z,130
2018-01-28T12:50:12.567Z,120
2018-01-28T12:51:12.806Z,100
2018-01-28T12:52:13.312Z,95
2018-01-28T12:53:13.048Z,120
2018-01-28T12:54:13.292Z,130
2018-01-28T12:55:13.296Z,150
2018-01-28T12:56:13.011Z,165
2018-01-28T12:57:13.253Z,175
2018-01-28T12:58:13.284Z,170
2018-01-28T12:59:12.982Z,175
2018-01-28T13:00:12.973Z,165
2018-01-28T13:01:12.960Z,140
2018-01-28T13:02:13.212Z,140
2018-01-28T13:03:12.953Z,160
2018-01-28T13:04:12.940Z,185
2018-01-28T13:05:13.251Z,190
2018-01-28T13:06:12.919Z,185
2018-01-28T13:07:12.906Z,160
2018-01-28T13:08:13.165Z,160
2018-01-28T13:09:13.161Z,170
2018-01-28T13:10:12.916Z,160
2018-01-28T13:11:13.136Z,140
2018-01-28T13:12:12.618Z,140
2018-01-28T13:13:12.907Z,135
2018-01-28T13:14:12.592Z,130
2018-01-28T13:15:12.607Z,140
2018-01-28T13:16:12.329Z,150
2018-01-28T13:17:12.818Z,160
2018-01-28T13:18:12.567Z,155
2018-01-28T13:19:12.801Z,150
2018-01-28T13:20:12.959Z,135
2018-01-28T13:21:12.833Z,130
2018-01-28T13:22:13.037Z,150
2018-01-28T13:23:13.028Z,170
2018-01-28T13:24:12.503Z,180
2018-01-28T13:25:12.766Z,190
2018-01-28T13:26:12.995Z,185
2018-01-28T13:27:12.756Z,180
2018-01-28T13:28:12.984Z,175
2018-01-28T13:29:12.983Z,165
2018-01-28T13:30:12.965Z,160
2018-01-28T13:31:12.441Z,150
2018-01-28T13:32:12.446Z,130
2018-01-28T13:33:12.942Z,125
2018-01-28T13:34:12.924Z,125
2018-01-28T13:35:12.660Z,130
2018-01-28T13:36:12.651Z,125
2018-01-28T13:37:12.655Z,130
2018-01-28T13:38:12.889Z,130
2018-01-28T13:39:12.634Z,135
2018-01-28T13:40:12.635Z,135
2018-01-28T13:41:12.876Z,130
2018-01-28T13:42:12.920Z,125
2018-01-28T13:43:12.594Z,125
2018-01-28T13:44:12.886Z,130
2018-01-28T13:45:12.383Z,125
2018-01-28T13:46:12.433Z,140
2018-01-28T13:47:12.654Z,140
2018-01-28T13:48:12.805Z,140
2018-01-28T13:49:12.808Z,140
2018-01-28T13:50:12.864Z,140
2018-01-28T13:51:12.053Z,130
2018-01-28T13:52:12.275Z,125
2018-01-28T13:53:12.250Z,130
2018-01-28T13:54:12.592Z,125
2018-01-28T13:55:12.503Z,95
2018-01-28T13:56:12.578Z,85
2018-01-28T13:57:12.556Z,105
2018-01-28T13:58:12.566Z,120
2018-01-28T13:59:12.246Z,125
2018-01-28T14:00:12.496Z,120
2018-01-28T14:01:12.763Z,125
2018-01-28T14:02:12.444Z,110
2018-01-28T14:03:12.455Z,100
2018-01-28T14:04:12.408Z,110
2018-01-28T14:05:12.161Z,110
2018-01-28T14:06:12.392Z,125
2018-01-28T14:07:12.393Z,125
2018-01-28T14:08:12.624Z,125
2018-01-28T14:09:12.637Z,125
2018-01-28T14:10:12.112Z,125
2018-01-28T14:11:12.351Z,125
2018-01-28T14:12:12.084Z,125
2018-01-28T14:13:12.078Z,125
2018-01-28T14:14:12.074Z,125
2018-01-28T14:15:12.330Z,125
2018-01-28T14:16:12.567Z,120
2018-01-28T14:17:12.553Z,120
2018-01-28T14:18:12.320Z,120
2018-01-28T14:19:12.285Z,115
2018-01-28T14:20:12.545Z,115
2018-01-28T14:21:12.265Z,110